Time;durP1;ratioP1;P1;durP2;ratioP2;P2;SDS_P1;SDS_P2;PMS_P1;PMS_P2;Temp;Humidity;BMP_temperature;BMP_pressure;BME280_temperature;BME280_humidity;BME280_pressure;Samples;Min_cycle;Max_cycle;Signal;HPM_P1;HPM_P2
2023/09/01 00:00:19;;;;;;;5.45;2.92;;;;;;;16.31;87.66;100702.94;5012293;28;20494;-62
2023/09/01 00:02:44;;;;;;;5.28;2.85;;;;;;;16.32;88.40;100702.88;5011339;28;20121;-61
2023/09/01 00:05:10;;;;;;;8.23;3.13;;;;;;;16.31;88.90;100703.78;5016706;28;20453;-61
2023/09/01 00:07:36;;;;;;;4.35;2.80;;;;;;;16.30;88.89;100694.25;5013322;28;20065;-62
2023/09/01 00:10:01;;;;;;;5.65;2.95;;;;;;;16.30;89.70;100696.84;5025347;28;20240;-61
2023/09/01 00:12:27;;;;;;;7.18;3.28;;;;;;;16.27;90.90;100689.13;5016829;28;20124;-61
2023/09/01 00:14:52;;;;;;;6.10;3.30;;;;;;;16.24;91.57;100689.22;5017768;28;20037;-61
2023/09/01 00:17:18;;;;;;;7.82;3.90;;;;;;;16.21;92.67;100696.28;5013809;28;20037;-62
2023/09/01 00:19:44;;;;;;;12.00;4.05;;;;;;;16.17;92.94;100694.72;5010302;28;20040;-61
2023/09/01 00:22:09;;;;;;;7.75;3.17;;;;;;;16.16;93.32;100693.00;5017542;28;20088;-62
2023/09/01 00:24:35;;;;;;;8.00;3.60;;;;;;;16.16;93.17;100690.38;5017353;28;20035;-61
2023/09/01 00:27:01;;;;;;;5.68;3.40;;;;;;;16.17;93.67;100689.50;5018072;28;20532;-62
2023/09/01 00:29:26;;;;;;;7.88;3.30;;;;;;;16.16;93.58;100696.47;5011074;28;20651;-61
2023/09/01 00:31:52;;;;;;;7.78;3.85;;;;;;;16.18;93.79;100699.84;5012040;28;20124;-61
2023/09/01 00:34:17;;;;;;;8.90;3.40;;;;;;;16.18;93.56;100699.00;5011481;28;20073;-61
2023/09/01 00:36:43;;;;;;;8.00;3.63;;;;;;;16.17;94.39;100694.72;5018939;28;21376;-61
2023/09/01 00:39:08;;;;;;;7.68;4.13;;;;;;;16.18;94.34;100696.38;5016485;28;20077;-61
2023/09/01 00:41:35;;;;;;;8.38;3.90;;;;;;;16.19;94.44;100692.88;5015195;28;20040;-61
2023/09/01 00:44:00;;;;;;;10.13;3.80;;;;;;;16.18;94.29;100691.19;5014579;28;20534;-61
2023/09/01 00:46:28;;;;;;;6.78;3.92;;;;;;;16.17;95.14;100684.28;5013745;28;20046;-61
2023/09/01 00:48:57;;;;;;;9.77;3.97;;;;;;;16.18;94.52;100688.56;5015233;28;20041;-62
2023/09/01 00:51:22;;;;;;;8.07;3.35;;;;;;;16.18;94.94;100684.22;5015431;28;20017;-62
2023/09/01 00:53:48;;;;;;;7.40;3.60;;;;;;;16.18;94.59;100684.22;5019915;28;20043;-61
2023/09/01 00:56:13;;;;;;;6.85;3.38;;;;;;;16.18;94.89;100680.75;5014210;28;20038;-61
2023/09/01 00:58:38;;;;;;;9.07;3.75;;;;;;;16.18;94.88;100679.00;5015477;28;20175;-62
2023/09/01 01:01:04;;;;;;;7.63;3.60;;;;;;;16.18;94.92;100675.53;5013687;28;20088;-61
2023/09/01 01:03:32;;;;;;;8.57;4.10;;;;;;;16.17;95.10;100677.31;5014269;28;20151;-62
2023/09/01 01:06:10;;;;;;;8.75;3.67;;;;;;;16.16;94.84;100683.41;5016526;28;20394;-62
2023/09/01 01:08:47;;;;;;;6.78;3.67;;;;;;;16.17;94.59;100682.53;5010565;28;20795;-62
2023/09/01 01:11:27;;;;;;;9.98;4.30;;;;;;;16.19;94.85;100685.06;5012767;28;20164;-62
2023/09/01 01:13:58;;;;;;;11.75;4.20;;;;;;;16.18;94.90;100679.00;5010954;28;20073;-62
2023/09/01 01:16:26;;;;;;;7.80;3.70;;;;;;;16.17;95.01;100677.31;5006516;28;20069;-62
2023/09/01 01:18:54;;;;;;;9.57;3.78;;;;;;;16.17;95.19;100673.84;5012328;28;20062;-61
2023/09/01 01:21:26;;;;;;;6.85;3.70;;;;;;;16.18;95.46;100678.13;5015785;28;20486;-62
2023/09/01 01:23:53;;;;;;;7.30;3.67;;;;;;;16.15;95.55;100673.88;5017357;28;20144;-62
2023/09/01 01:26:19;;;;;;;7.55;3.40;;;;;;;16.15;95.54;100666.06;5005471;28;20033;-62
2023/09/01 01:28:44;;;;;;;7.72;3.45;;;;;;;16.16;95.56;100665.16;5021708;28;20469;-62
2023/09/01 01:31:10;;;;;;;7.38;4.25;;;;;;;16.15;95.83;100667.81;5017457;28;20029;-62
2023/09/01 01:33:47;;;;;;;8.15;3.28;;;;;;;16.13;96.33;100680.06;5012712;28;20030;-61
2023/09/01 01:36:26;;;;;;;7.68;4.43;;;;;;;16.12;96.45;100675.72;5010989;28;20021;-61
2023/09/01 01:39:21;;;;;;;6.95;3.13;;;;;;;16.10;96.59;100673.19;4991886;28;20041;-62
2023/09/01 01:41:53;;;;;;;5.10;3.38;;;;;;;16.08;96.70;100672.38;5011957;28;20045;-61
2023/09/01 01:44:24;;;;;;;8.07;3.70;;;;;;;16.05;96.69;100669.03;5017285;28;20041;-62
2023/09/01 01:46:50;;;;;;;5.50;3.53;;;;;;;16.03;97.07;100661.25;5014806;28;20038;-61
2023/09/01 01:49:16;;;;;;;7.47;4.13;;;;;;;15.99;97.68;100664.00;5017469;28;20033;-62
2023/09/01 01:51:41;;;;;;;10.50;3.70;;;;;;;15.95;98.47;100665.00;5010980;28;20025;-61
2023/09/01 01:54:07;;;;;;;9.13;4.30;;;;;;;15.89;98.94;100658.22;5015957;28;20038;-61
2023/09/01 01:56:33;;;;;;;8.13;3.63;;;;;;;15.87;99.36;100659.19;5011490;28;20215;-62
2023/09/01 01:58:59;;;;;;;11.68;4.93;;;;;;;15.83;100.00;100662.78;5003990;28;20034;-62
2023/09/01 02:01:25;;;;;;;8.40;3.80;;;;;;;15.76;100.00;100657.75;5007304;28;20303;-62
2023/09/01 02:03:51;;;;;;;6.00;4.03;;;;;;;15.71;100.00;100670.09;5015819;28;20263;-62
2023/09/01 02:06:17;;;;;;;6.05;3.90;;;;;;;15.59;100.00;100660.00;5014332;28;20033;-63
2023/09/01 02:08:42;;;;;;;7.03;4.00;;;;;;;15.51;100.00;100664.59;5017932;28;20414;-63
2023/09/01 02:11:07;;;;;;;7.45;4.18;;;;;;;15.46;100.00;100668.25;5011877;28;20092;-63
2023/09/01 02:13:33;;;;;;;7.78;3.92;;;;;;;15.40;100.00;100669.28;5007637;28;20046;-63
2023/09/01 02:15:58;;;;;;;10.20;5.00;;;;;;;15.39;100.00;100664.97;5016953;28;20066;-63
2023/09/01 02:18:24;;;;;;;8.73;4.45;;;;;;;15.34;100.00;100661.66;5011217;28;20642;-63
2023/09/01 02:20:50;;;;;;;9.55;4.40;;;;;;;15.31;100.00;100661.75;5012941;28;20026;-63
2023/09/01 02:23:17;;;;;;;10.52;4.72;;;;;;;15.30;100.00;100667.84;5012530;28;20042;-64
2023/09/01 02:25:46;;;;;;;11.75;4.47;;;;;;;15.29;100.00;100662.66;5017464;28;20403;-63
2023/09/01 02:28:11;;;;;;;6.75;4.38;;;;;;;15.28;100.00;100664.44;5005323;28;20038;-64
2023/09/01 02:30:38;;;;;;;8.57;4.53;;;;;;;15.26;100.00;100666.19;5012810;28;20052;-63
2023/09/01 02:33:03;;;;;;;9.63;5.25;;;;;;;15.27;100.00;100665.31;5016509;28;20022;-64
2023/09/01 02:35:28;;;;;;;6.70;4.43;;;;;;;15.27;100.00;100665.31;5016417;28;20041;-63
2023/09/01 02:37:54;;;;;;;9.48;4.45;;;;;;;15.28;100.00;100674.00;5015176;28;20040;-63
2023/09/01 02:40:22;;;;;;;11.82;4.85;;;;;;;15.32;100.00;100671.22;5013284;28;20041;-63
2023/09/01 02:42:47;;;;;;;8.95;4.70;;;;;;;15.32;100.00;100666.03;5008992;28;20037;-64
2023/09/01 02:45:13;;;;;;;8.60;4.88;;;;;;;15.36;100.00;100669.41;5010766;28;20030;-63
2023/09/01 02:47:43;;;;;;;11.18;5.03;;;;;;;15.34;100.00;100668.59;5012194;28;20506;-63
2023/09/01 02:50:09;;;;;;;10.40;5.57;;;;;;;15.32;100.00;100671.22;5012259;28;20069;-63
2023/09/01 02:52:34;;;;;;;7.32;5.13;;;;;;;15.30;100.00;100675.66;5023630;28;20044;-63
2023/09/01 02:55:00;;;;;;;8.27;4.90;;;;;;;15.32;100.00;100676.44;5014441;28;20045;-63
2023/09/01 02:57:26;;;;;;;10.27;4.85;;;;;;;15.31;100.00;100674.75;5013388;28;20220;-63
2023/09/01 02:59:53;;;;;;;6.45;4.72;;;;;;;15.30;100.00;100672.19;5008908;28;20109;-63
2023/09/01 03:02:19;;;;;;;9.00;4.90;;;;;;;15.30;100.00;100659.16;5011809;28;20124;-63
2023/09/01 03:04:44;;;;;;;9.02;5.10;;;;;;;15.27;100.00;100654.91;5010636;28;20073;-63
2023/09/01 03:07:09;;;;;;;7.07;5.00;;;;;;;15.26;100.00;100653.19;5011948;28;20046;-63
2023/09/01 03:09:35;;;;;;;8.05;5.30;;;;;;;15.23;100.00;100642.84;5012600;28;20825;-62
2023/09/01 03:12:00;;;;;;;9.07;4.72;;;;;;;15.21;100.00;100650.72;5011164;28;20037;-63
2023/09/01 03:14:25;;;;;;;7.43;4.88;;;;;;;15.21;100.00;100644.66;5014328;28;20049;-62
2023/09/01 03:16:52;;;;;;;10.60;4.95;;;;;;;15.20;100.00;100645.56;5007414;28;20051;-63
2023/09/01 03:19:17;;;;;;;7.68;5.10;;;;;;;15.18;100.00;100635.19;5013639;28;20037;-63
2023/09/01 03:21:43;;;;;;;12.25;4.88;;;;;;;15.16;100.00;100636.13;5006601;28;20045;-62
2023/09/01 03:24:08;;;;;;;7.97;4.97;;;;;;;15.16;100.00;100637.00;5007119;28;20029;-63
2023/09/01 03:26:34;;;;;;;7.55;4.85;;;;;;;15.14;100.00;100641.38;5010408;28;20034;-62
2023/09/01 03:29:01;;;;;;;9.60;4.85;;;;;;;15.16;100.00;100641.34;5007303;28;20048;-63
2023/09/01 03:31:26;;;;;;;10.35;5.40;;;;;;;15.14;100.00;100643.97;5011437;28;20526;-63
2023/09/01 03:33:51;;;;;;;11.77;6.40;;;;;;;15.12;100.00;100642.31;5013053;28;20046;-62
2023/09/01 03:36:17;;;;;;;7.03;5.45;;;;;;;15.11;100.00;100644.06;5006053;28;20397;-62
2023/09/01 03:38:42;;;;;;;11.50;5.75;;;;;;;15.10;100.00;100638.91;5008311;28;20038;-62
2023/09/01 03:41:08;;;;;;;10.95;6.60;;;;;;;15.08;100.00;100644.16;5007198;28;20033;-62
2023/09/01 03:43:33;;;;;;;9.40;6.28;;;;;;;15.08;100.00;100645.91;5013219;28;20065;-62
2023/09/01 03:46:00;;;;;;;9.63;5.90;;;;;;;15.09;100.00;100653.69;5017520;28;20050;-63
2023/09/01 03:48:26;;;;;;;10.18;6.60;;;;;;;15.10;100.00;100652.78;5009063;28;20029;-63
2023/09/01 03:51:15;;;;;;;11.70;5.55;;;;;;;15.11;100.00;100651.88;5010344;28;20454;-62
2023/09/01 03:53:41;;;;;;;10.35;6.40;;;;;;;15.11;100.00;100656.22;5012655;28;20034;-63
2023/09/01 03:56:08;;;;;;;12.70;6.05;;;;;;;15.12;100.00;100655.34;5012017;28;20040;-62
2023/09/01 03:58:34;;;;;;;9.80;5.97;;;;;;;15.16;100.00;100651.75;5009857;28;20095;-62
2023/09/01 04:01:00;;;;;;;10.60;5.70;;;;;;;15.15;100.00;100658.72;5010531;28;20593;-63
2023/09/01 04:03:25;;;;;;;12.25;5.80;;;;;;;15.15;100.00;100661.31;5012050;28;20650;-63
2023/09/01 04:05:57;;;;;;;10.57;5.82;;;;;;;15.17;100.00;100662.13;5008445;28;20042;-64
2023/09/01 04:08:22;;;;;;;10.05;5.65;;;;;;;15.18;100.00;100661.22;5013899;28;20038;-64
2023/09/01 04:10:48;;;;;;;10.38;6.38;;;;;;;15.18;100.00;100661.22;5009530;28;20559;-63
2023/09/01 04:13:13;;;;;;;9.45;5.85;;;;;;;15.18;100.00;100658.63;5005248;28;20096;-63
2023/09/01 04:15:39;;;;;;;11.45;6.72;;;;;;;15.19;100.00;100649.06;5010057;28;20033;-63
2023/09/01 04:18:04;;;;;;;9.63;5.57;;;;;;;15.20;100.00;100645.56;5019321;28;20065;-63
2023/09/01 04:20:29;;;;;;;8.93;5.72;;;;;;;15.20;100.00;100651.63;5018367;28;20045;-63
2023/09/01 04:22:55;;;;;;;9.70;5.57;;;;;;;15.19;100.00;100652.53;5010969;28;20089;-63
2023/09/01 04:25:20;;;;;;;7.70;5.20;;;;;;;15.20;100.00;100655.97;5008816;28;20150;-62
2023/09/01 04:27:45;;;;;;;8.65;5.25;;;;;;;15.23;100.00;100658.47;5008204;28;20042;-62
2023/09/01 04:30:11;;;;;;;9.95;5.93;;;;;;;15.21;100.00;100652.47;5011729;28;20696;-63
2023/09/01 04:32:36;;;;;;;8.43;5.70;;;;;;;15.22;100.00;100651.59;5008914;28;20422;-63
2023/09/01 04:35:02;;;;;;;10.65;6.28;;;;;;;15.24;100.00;100657.59;5014200;28;20033;-63
2023/09/01 04:37:27;;;;;;;7.80;5.43;;;;;;;15.28;100.00;100660.97;4995813;28;20046;-63
2023/09/01 04:39:53;;;;;;;11.45;5.40;;;;;;;15.29;100.00;100655.69;5011622;28;20171;-63
2023/09/01 04:42:18;;;;;;;8.80;5.00;;;;;;;15.33;100.00;100657.31;5013379;28;20158;-63
2023/09/01 04:44:43;;;;;;;9.68;5.10;;;;;;;15.37;100.00;100653.75;5015424;28;20715;-62
2023/09/01 04:47:09;;;;;;;8.60;5.30;;;;;;;15.40;100.00;100653.66;5018530;28;20065;-63
2023/09/01 04:49:34;;;;;;;7.35;4.95;;;;;;;15.43;100.00;100653.56;5014456;28;20180;-63
2023/09/01 04:52:00;;;;;;;9.75;4.85;;;;;;;15.47;100.00;100643.88;5014493;28;20502;-63
2023/09/01 04:54:25;;;;;;;7.07;4.28;;;;;;;15.48;100.00;100641.25;5010958;28;20030;-63
2023/09/01 04:56:51;;;;;;;8.25;4.53;;;;;;;15.51;100.00;100645.50;5016121;28;20032;-64
2023/09/01 04:59:16;;;;;;;8.80;4.40;;;;;;;15.56;100.00;100643.59;5013708;28;20050;-63
2023/09/01 05:01:42;;;;;;;6.20;4.53;;;;;;;15.59;100.00;100623.53;5007239;28;20068;-63
2023/09/01 05:04:10;;;;;;;6.60;4.30;;;;;;;15.63;100.00;100624.31;5013434;28;20152;-63
2023/09/01 05:06:35;;;;;;;9.90;3.95;;;;;;;15.68;100.00;100628.47;5011536;28;20061;-63
2023/09/01 05:09:03;;;;;;;5.80;3.60;;;;;;;15.71;100.00;100644.03;5013652;28;20026;-63
2023/09/01 05:11:29;;;;;;;7.78;3.85;;;;;;;15.75;100.00;100647.38;5007396;28;20038;-63
2023/09/01 05:13:55;;;;;;;7.43;3.80;;;;;;;15.77;100.00;100642.97;5013201;28;20053;-63
2023/09/01 05:16:20;;;;;;;5.03;3.05;;;;;;;15.82;100.00;100648.06;5017280;28;20029;-64
2023/09/01 05:18:46;;;;;;;7.97;3.40;;;;;;;15.85;100.00;100654.00;5017430;28;20037;-63
2023/09/01 05:21:12;;;;;;;5.32;3.47;;;;;;;15.89;100.00;100652.16;5014889;28;20096;-63
2023/09/01 05:23:38;;;;;;;3.97;2.97;;;;;;;15.91;100.00;100655.59;5012632;28;20030;-63
2023/09/01 05:26:03;;;;;;;3.95;2.63;;;;;;;15.95;100.00;100655.41;5015382;28;20041;-63
2023/09/01 05:28:28;;;;;;;3.88;2.72;;;;;;;15.97;100.00;100658.81;5015234;28;20243;-63
2023/09/01 05:30:57;;;;;;;3.65;2.85;;;;;;;16.00;100.00;100663.13;5008680;28;20099;-63
2023/09/01 05:33:22;;;;;;;4.00;2.40;;;;;;;16.01;100.00;100663.06;5013037;28;20742;-63
2023/09/01 05:35:48;;;;;;;3.50;2.35;;;;;;;16.02;100.00;100654.34;5010926;28;20044;-63
2023/09/01 05:38:13;;;;;;;8.13;2.72;;;;;;;16.05;100.00;100653.38;5014294;28;20071;-63
2023/09/01 05:40:39;;;;;;;4.50;2.92;;;;;;;16.09;100.00;100655.81;5012161;28;20510;-63
2023/09/01 05:43:05;;;;;;;5.25;2.70;;;;;;;16.12;100.00;100652.25;5015186;28;20042;-62
2023/09/01 05:45:31;;;;;;;3.58;2.30;;;;;;;16.13;100.00;100651.38;5008918;28;20040;-63
2023/09/01 05:47:56;;;;;;;6.38;2.67;;;;;;;16.19;100.00;100657.25;5022189;28;20034;-62
2023/09/01 05:50:22;;;;;;;5.13;2.58;;;;;;;16.22;100.00;100651.94;5011479;28;20132;-62
2023/09/01 05:52:47;;;;;;;8.93;2.90;;;;;;;16.25;100.00;100648.34;5011248;28;20045;-63
2023/09/01 05:55:13;;;;;;;3.80;2.50;;;;;;;16.31;100.00;100646.41;4998233;28;20041;-63
2023/09/01 05:57:39;;;;;;;3.75;2.90;;;;;;;16.35;100.00;100649.75;5007997;28;20076;-62
2023/09/01 06:00:07;;;;;;;5.18;2.38;;;;;;;16.37;100.00;100641.88;5012236;28;20025;-62
2023/09/01 06:02:32;;;;;;;3.70;2.17;;;;;;;16.46;100.00;100645.03;5015482;28;20556;-62
2023/09/01 06:04:57;;;;;;;5.13;2.78;;;;;;;16.55;100.00;100649.06;5006991;28;20065;-63
2023/09/01 06:07:23;;;;;;;4.18;2.30;;;;;;;16.62;100.00;100654.00;5009798;28;20084;-62
2023/09/01 06:09:48;;;;;;;3.80;2.42;;;;;;;16.72;100.00;100644.97;4988040;28;20499;-62
2023/09/01 06:12:14;;;;;;;4.53;2.10;;;;;;;16.84;100.00;100643.72;5007068;28;20038;-62
2023/09/01 06:14:40;;;;;;;3.30;2.10;;;;;;;16.97;100.00;100655.44;5012892;28;20080;-62
2023/09/01 06:17:06;;;;;;;2.88;2.00;;;;;;;17.07;100.00;100651.56;5013522;28;20548;-62
2023/09/01 06:19:31;;;;;;;4.47;2.00;;;;;;;17.13;100.00;100651.31;5012408;28;20111;-62
2023/09/01 06:21:56;;;;;;;4.07;2.13;;;;;;;17.13;100.00;100658.31;5011689;28;20037;-62
2023/09/01 06:24:22;;;;;;;2.78;1.77;;;;;;;17.16;100.00;100655.59;5011844;28;20033;-62
2023/09/01 06:26:47;;;;;;;3.38;1.77;;;;;;;17.14;100.00;100657.41;5003497;28;20060;-62
2023/09/01 06:29:12;;;;;;;4.53;2.15;;;;;;;17.14;100.00;100660.88;5007769;28;20133;-62
2023/09/01 06:31:38;;;;;;;3.45;2.10;;;;;;;17.16;100.00;100666.88;5010843;28;20054;-62
2023/09/01 06:34:03;;;;;;;2.10;1.75;;;;;;;17.10;100.00;100664.50;5016598;28;20049;-62
2023/09/01 06:36:29;;;;;;;2.35;1.75;;;;;;;17.12;100.00;100660.09;5011902;28;20038;-62
2023/09/01 06:38:54;;;;;;;4.30;2.50;;;;;;;17.10;100.00;100671.47;5011169;28;20030;-62
2023/09/01 06:41:19;;;;;;;3.50;1.65;;;;;;;17.12;100.00;100667.06;5006594;28;20038;-62
2023/09/01 06:43:45;;;;;;;2.53;1.60;;;;;;;17.08;100.00;100670.69;5009453;28;20045;-62
2023/09/01 06:46:10;;;;;;;2.10;1.35;;;;;;;17.09;100.00;100675.00;5008591;28;20040;-62
2023/09/01 06:48:36;;;;;;;2.10;1.33;;;;;;;17.05;100.00;100684.72;5009497;28;20445;-62
2023/09/01 06:51:02;;;;;;;3.88;1.75;;;;;;;17.01;100.00;100680.50;5005775;28;20038;-62
2023/09/01 06:53:27;;;;;;;2.58;1.50;;;;;;;16.97;100.00;100685.91;5004726;28;20030;-62
2023/09/01 06:55:53;;;;;;;3.17;1.45;;;;;;;16.89;100.00;100686.16;5017646;28;20091;-62
2023/09/01 06:58:18;;;;;;;2.13;1.30;;;;;;;16.87;100.00;100687.97;5011807;28;20061;-62
2023/09/01 07:00:44;;;;;;;2.35;1.42;;;;;;;16.80;100.00;100689.94;5010883;28;20042;-62
2023/09/01 07:03:09;;;;;;;3.00;1.38;;;;;;;16.78;100.00;100686.53;5006781;28;20025;-62
2023/09/01 07:05:35;;;;;;;1.98;1.63;;;;;;;16.74;100.00;100681.47;5008603;28;20042;-62
2023/09/01 07:08:00;;;;;;;3.55;1.50;;;;;;;16.74;100.00;100676.25;5011307;28;20050;-62
2023/09/01 07:10:26;;;;;;;3.35;2.05;;;;;;;16.69;100.00;100672.94;5010434;28;20073;-62
2023/09/01 07:12:51;;;;;;;3.33;1.33;;;;;;;16.63;100.00;100676.59;5011464;28;20033;-62
2023/09/01 07:15:17;;;;;;;4.03;1.80;;;;;;;16.59;100.00;100679.38;5010252;28;20087;-63
2023/09/01 07:17:43;;;;;;;3.33;1.98;;;;;;;16.53;100.00;100683.06;5010636;28;20136;-63
2023/09/01 07:20:11;;;;;;;3.20;1.73;;;;;;;16.50;100.00;100683.16;5012913;28;20446;-63
2023/09/01 07:22:37;;;;;;;4.93;2.08;;;;;;;16.48;100.00;100684.94;5014803;28;20095;-63
2023/09/01 07:25:04;;;;;;;3.17;2.00;;;;;;;16.43;100.00;100684.25;5007661;28;20038;-62
2023/09/01 07:27:29;;;;;;;5.57;3.22;;;;;;;16.43;100.00;100681.66;5003139;28;20068;-62
2023/09/01 07:29:55;;;;;;;3.65;2.70;;;;;;;16.44;100.00;100678.16;5015680;28;20213;-63
2023/09/01 07:32:20;;;;;;;4.07;1.92;;;;;;;16.43;100.00;100671.22;5013792;28;20129;-64
2023/09/01 07:34:47;;;;;;;4.07;2.70;;;;;;;16.46;100.00;100670.25;5015353;28;20038;-65
2023/09/01 07:37:12;;;;;;;5.93;2.70;;;;;;;16.45;100.00;100672.00;5013415;28;20964;-65
2023/09/01 07:39:38;;;;;;;4.80;2.78;;;;;;;16.50;100.00;100677.09;5014213;28;20036;-65
2023/09/01 07:42:05;;;;;;;5.28;3.10;;;;;;;16.53;100.00;100677.84;5006183;28;20640;-66
2023/09/01 07:44:30;;;;;;;4.53;2.83;;;;;;;16.53;100.00;100677.00;5009647;28;20548;-65
2023/09/01 07:46:56;;;;;;;6.25;3.17;;;;;;;16.57;100.00;100679.41;5005701;28;20045;-64
2023/09/01 07:49:21;;;;;;;4.53;3.17;;;;;;;16.59;100.00;100687.22;5010873;28;20049;-64
2023/09/01 07:51:48;;;;;;;5.68;3.55;;;;;;;16.64;100.00;100691.38;5005873;28;20053;-64
2023/09/01 07:54:13;;;;;;;6.68;3.20;;;;;;;16.59;100.00;100695.03;5005312;28;20534;-65
2023/09/01 07:56:38;;;;;;;6.25;3.78;;;;;;;16.61;100.00;100693.22;5007643;28;20038;-65
2023/09/01 07:59:04;;;;;;;7.80;3.80;;;;;;;16.62;100.00;100698.38;5008754;28;20125;-64
2023/09/01 08:01:29;;;;;;;5.45;3.60;;;;;;;16.71;100.00;100694.63;5011721;28;20064;-65
2023/09/01 08:03:59;;;;;;;5.43;2.92;;;;;;;16.69;100.00;100692.06;5010808;28;20033;-64
2023/09/01 08:06:26;;;;;;;7.75;3.97;;;;;;;16.69;100.00;100694.66;5007783;28;20033;-62
2023/09/01 08:08:53;;;;;;;6.22;3.35;;;;;;;16.71;100.00;100700.66;5005993;28;20025;-63
2023/09/01 08:11:19;;;;;;;5.88;3.35;;;;;;;16.71;100.00;100692.03;5006884;28;20068;-63
2023/09/01 08:13:44;;;;;;;6.53;3.10;;;;;;;16.72;100.00;100691.94;5006714;28;20129;-63
2023/09/01 08:16:09;;;;;;;6.40;3.65;;;;;;;16.79;100.00;100698.72;5008041;28;20045;-63
2023/09/01 08:18:35;;;;;;;4.45;2.97;;;;;;;16.84;100.00;100688.94;5014077;28;20040;-63
2023/09/01 08:21:05;;;;;;;9.27;3.75;;;;;;;16.89;100.00;100693.16;5013911;28;20494;-64
2023/09/01 08:23:30;;;;;;;4.32;3.30;;;;;;;16.97;100.00;100696.34;5012980;28;20120;-64
2023/09/01 08:25:55;;;;;;;7.10;3.17;;;;;;;16.97;100.00;100699.81;5010047;28;20099;-63
2023/09/01 08:28:21;;;;;;;6.53;3.42;;;;;;;17.00;100.00;100699.72;5011975;28;20120;-64
2023/09/01 08:30:46;;;;;;;7.55;3.50;;;;;;;17.09;100.00;100698.53;5017437;28;20041;-65
2023/09/01 08:33:13;;;;;;;3.88;3.05;;;;;;;17.10;100.00;100701.06;5010643;28;20034;-64
2023/09/01 08:35:39;;;;;;;5.18;3.60;;;;;;;17.23;100.00;100704.09;5009116;28;20060;-63
2023/09/01 08:38:05;;;;;;;7.95;3.42;;;;;;;17.32;100.00;100694.16;5012500;28;20684;-63
2023/09/01 08:40:30;;;;;;;2.78;2.45;;;;;;;17.35;100.00;100701.03;5013449;28;20124;-64
2023/09/01 08:42:56;;;;;;;3.40;2.92;;;;;;;17.53;100.00;100697.72;5004315;28;20450;-64
2023/09/01 08:45:22;;;;;;;5.45;2.67;;;;;;;17.67;100.00;100703.28;5017759;28;20160;-64
2023/09/01 08:47:49;;;;;;;5.38;3.58;;;;;;;17.77;100.00;100695.94;5012659;28;20125;-64
2023/09/01 08:50:16;;;;;;;3.47;2.13;;;;;;;17.79;100.00;100687.13;5015615;28;20038;-64
2023/09/01 08:52:44;;;;;;;5.05;2.10;;;;;;;17.84;100.00;100686.97;5023814;28;20087;-66
2023/09/01 08:55:10;;;;;;;6.45;2.28;;;;;;;17.95;100.00;100687.41;5019599;28;20037;-66
2023/09/01 08:57:37;;;;;;;3.45;2.17;;;;;;;18.03;100.00;100687.94;5010821;28;20037;-65
2023/09/01 09:00:04;;;;;;;3.08;2.22;;;;;;;18.08;100.00;100693.84;5023541;28;20745;-66
2023/09/01 09:02:30;;;;;;;2.83;2.03;;;;;;;18.13;100.00;100691.91;5014535;28;20032;-65
2023/09/01 09:04:55;;;;;;;2.30;1.73;;;;;;;18.28;100.00;100703.50;5024188;28;20040;-66
2023/09/01 09:07:21;;;;;;;4.40;2.20;;;;;;;18.31;100.00;100695.53;5031249;28;20667;-66
2023/09/01 09:09:55;;;;;;;3.13;1.65;;;;;;;18.24;100.00;100691.47;5018435;28;20037;-65
2023/09/01 09:12:33;;;;;;;2.88;1.77;;;;;;;18.37;100.00;100696.09;5016523;28;20025;-66
2023/09/01 09:14:59;;;;;;;2.38;1.73;;;;;;;18.58;100.00;100698.78;5014016;28;20041;-65
2023/09/01 09:17:39;;;;;;;2.45;1.80;;;;;;;18.69;100.00;100691.31;5017830;28;20038;-66
2023/09/01 09:20:06;;;;;;;3.35;1.48;;;;;;;18.70;100.00;100691.22;5013915;28;20034;-65
2023/09/01 09:22:32;;;;;;;3.92;1.85;;;;;;;18.89;100.00;100696.56;5013383;28;20039;-65
2023/09/01 09:24:57;;;;;;;4.13;1.40;;;;;;;18.92;100.00;100693.81;5009398;28;20041;-65
2023/09/01 09:27:22;;;;;;;2.53;1.30;;;;;;;19.07;100.00;100695.75;5007369;28;20040;-66
2023/09/01 09:29:48;;;;;;;1.40;1.20;;;;;;;19.26;100.00;100693.19;5009597;28;20041;-65
2023/09/01 09:32:26;;;;;;;3.00;1.20;;;;;;;19.36;100.00;100689.19;5007825;28;20470;-66
2023/09/01 09:35:05;;;;;;;1.88;1.42;;;;;;;19.46;100.00;100695.72;5008619;28;20042;-65
2023/09/01 09:37:32;;;;;;;2.00;1.35;;;;;;;19.56;100.00;100697.03;5006797;28;20042;-65
2023/09/01 09:40:10;;;;;;;3.05;1.15;;;;;;;19.59;100.00;100695.09;5006775;28;20065;-65
2023/09/01 09:42:41;;;;;;;2.50;1.30;;;;;;;19.44;100.00;100692.34;5006521;28;20067;-65
2023/09/01 09:45:32;;;;;;;1.67;1.08;;;;;;;19.47;100.00;100692.19;5013091;28;20486;-65
2023/09/01 09:48:06;;;;;;;3.58;1.20;;;;;;;19.36;100.00;100695.28;5006126;28;20046;-66
2023/09/01 09:50:32;;;;;;;2.22;1.02;;;;;;;19.03;100.00;100705.50;5011152;28;20498;-65
2023/09/01 09:53:00;;;;;;;2.92;1.52;;;;;;;18.80;100.00;100697.78;5011838;28;20129;-64
2023/09/01 09:55:27;;;;;;;6.43;1.40;;;;;;;18.70;100.00;100704.31;5006650;28;20124;-65
2023/09/01 09:58:02;;;;;;;6.13;1.50;;;;;;;18.52;100.00;100698.09;5004949;28;20080;-66
2023/09/01 10:00:30;;;;;;;2.17;1.27;;;;;;;18.46;100.00;100708.00;5020136;28;20028;-65
2023/09/01 10:03:06;;;;;;;2.42;1.35;;;;;;;18.42;100.00;100707.25;5008662;28;20556;-66
2023/09/01 10:05:32;;;;;;;3.38;1.58;;;;;;;18.45;100.00;100708.91;5013561;28;20037;-65
2023/09/01 10:08:02;;;;;;;3.63;1.80;;;;;;;18.54;100.00;100700.66;5012173;28;20052;-65
2023/09/01 10:10:27;;;;;;;2.80;1.90;;;;;;;18.59;100.00;100708.31;5000164;28;20345;-65
2023/09/01 10:12:54;;;;;;;3.85;1.80;;;;;;;18.70;100.00;100714.78;5008372;28;20407;-65
2023/09/01 10:15:20;;;;;;;2.60;1.92;;;;;;;18.77;100.00;100705.75;5004463;28;20037;-66
2023/09/01 10:17:48;;;;;;;3.42;2.00;;;;;;;18.79;100.00;100703.91;5011546;28;20041;-65
2023/09/01 10:20:13;;;;;;;3.55;1.80;;;;;;;18.77;100.00;100705.75;5010979;28;20034;-65
2023/09/01 10:22:39;;;;;;;3.25;1.98;;;;;;;18.73;100.00;100701.56;5016269;28;20695;-65
2023/09/01 10:25:19;;;;;;;5.13;2.40;;;;;;;18.78;100.00;100709.25;5010446;28;20098;-64
2023/09/01 10:28:03;;;;;;;2.15;1.88;;;;;;;18.82;100.00;100711.66;5001453;28;20068;-64
2023/09/01 10:30:32;;;;;;;2.70;1.90;;;;;;;18.77;100.00;100705.75;5010482;28;20055;-65
2023/09/01 10:33:06;;;;;;;3.97;2.17;;;;;;;18.82;100.00;100709.03;5006922;28;20087;-65
2023/09/01 10:35:46;;;;;;;3.33;2.17;;;;;;;18.91;100.00;100713.91;5010141;28;20037;-65
2023/09/01 10:38:33;;;;;;;3.60;2.08;;;;;;;18.91;100.00;100713.06;5014812;28;20731;-65
2023/09/01 10:40:59;;;;;;;2.97;2.15;;;;;;;18.93;100.00;100717.34;5011414;28;20029;-65
2023/09/01 10:43:33;;;;;;;5.43;2.47;;;;;;;18.98;100.00;100714.50;5005713;28;20087;-65
2023/09/01 10:46:14;;;;;;;3.40;2.33;;;;;;;18.96;100.00;100717.19;5005829;28;20103;-64
2023/09/01 10:48:58;;;;;;;4.68;2.50;;;;;;;18.91;100.00;100724.38;5007553;28;20669;-65
2023/09/01 10:51:33;;;;;;;3.87;2.47;;;;;;;18.87;100.00;100722.84;5007386;28;20034;-65
2023/09/01 10:54:02;;;;;;;5.07;2.33;;;;;;;18.87;100.00;100725.44;5010017;28;20084;-65
2023/09/01 10:56:29;;;;;;;4.40;2.95;;;;;;;18.89;100.00;100717.50;5006602;28;20495;-65
2023/09/01 10:58:56;;;;;;;3.88;2.50;;;;;;;18.90;100.00;100727.09;5009272;28;20177;-65
2023/09/01 11:01:37;;;;;;;3.97;2.80;;;;;;;18.94;100.00;100718.16;5006885;28;20033;-65
2023/09/01 11:04:14;;;;;;;4.25;2.60;;;;;;;18.99;100.00;100714.44;5012729;28;20261;-65
2023/09/01 11:06:58;;;;;;;4.65;2.70;;;;;;;19.03;100.00;100721.22;5022336;28;20779;-65
2023/09/01 11:09:42;;;;;;;4.82;2.55;;;;;;;19.09;100.00;100716.66;5011303;28;20067;-65
2023/09/01 11:12:09;;;;;;;3.60;1.90;;;;;;;19.09;100.00;100714.03;5009934;28;20049;-64
2023/09/01 11:14:36;;;;;;;2.47;1.88;;;;;;;19.15;100.00;100714.59;5008748;28;20115;-65
2023/09/01 11:17:03;;;;;;;4.38;2.30;;;;;;;19.19;100.00;100713.56;5007824;28;20052;-65